createdAt,value
2019-04-30T00:01:16.793Z,36.65
2019-04-30T00:03:42.620Z,36.77
2019-04-30T00:06:16.065Z,36.76
2019-04-30T00:08:49.357Z,36.81
2019-04-30T00:11:22.758Z,36.82
2019-04-30T00:13:58.858Z,36.84
2019-04-30T00:16:35.640Z,36.88
2019-04-30T00:19:06.286Z,36.86
2019-04-30T00:21:41.254Z,36.80
2019-04-30T00:24:15.891Z,36.83
2019-04-30T00:26:52.382Z,36.87
2019-04-30T00:29:30.176Z,36.82
2019-04-30T00:32:04.421Z,36.83
2019-04-30T00:34:39.412Z,36.81
2019-04-30T00:37:13.818Z,36.76
2019-04-30T00:39:51.021Z,36.79
2019-04-30T00:42:26.781Z,36.82
2019-04-30T00:44:59.651Z,36.90
2019-04-30T00:47:35.160Z,36.76
2019-04-30T00:50:08.765Z,36.79
2019-04-30T00:52:45.676Z,36.72
2019-04-30T00:55:18.888Z,36.77
2019-04-30T00:57:52.191Z,36.62
2019-04-30T01:00:29.655Z,36.80
2019-04-30T01:03:05.906Z,36.48
2019-04-30T01:05:39.641Z,36.61
2019-04-30T01:08:12.202Z,36.65
2019-04-30T01:10:46.032Z,36.75
2019-04-30T01:13:19.595Z,36.82
2019-04-30T01:15:52.924Z,36.82
2019-04-30T01:18:28.585Z,36.85
2019-04-30T01:21:02.922Z,36.90
2019-04-30T01:23:36.386Z,36.92
2019-04-30T01:26:09.869Z,36.91
2019-04-30T01:28:43.267Z,36.92
2019-04-30T01:31:16.780Z,36.96
2019-04-30T01:33:50.183Z,36.91
2019-04-30T01:36:23.587Z,36.89
2019-04-30T01:38:56.988Z,36.97
2019-04-30T01:41:31.388Z,36.98
2019-04-30T01:44:08.752Z,37.07
2019-04-30T01:46:43.318Z,36.84
2019-04-30T01:49:15.067Z,36.96
2019-04-30T01:51:48.706Z,36.99
2019-04-30T01:54:24.355Z,36.96
2019-04-30T01:56:59.418Z,37.07
2019-04-30T01:59:33.034Z,37.03
2019-04-30T02:02:06.452Z,37.02
2019-04-30T02:04:40.137Z,37.07
2019-04-30T02:07:13.555Z,37.03
2019-04-30T02:09:48.824Z,36.91
2019-04-30T02:12:22.332Z,37.03
2019-04-30T02:14:56.094Z,36.77
2019-04-30T02:17:29.442Z,36.94
2019-04-30T02:20:04.388Z,36.93
2019-04-30T02:22:38.978Z,36.97
2019-04-30T02:25:14.248Z,36.59
2019-04-30T02:27:49.237Z,36.81
2019-04-30T02:30:22.586Z,36.85
2019-04-30T02:32:56.004Z,36.95
2019-04-30T02:35:29.478Z,36.97
2019-04-30T02:38:02.880Z,36.94
2019-04-30T02:40:36.253Z,36.92
2019-04-30T02:43:09.587Z,37.08
2019-04-30T02:45:42.882Z,36.74
2019-04-30T02:48:16.310Z,36.97
2019-04-30T02:50:49.778Z,36.99
2019-04-30T02:53:50.547Z,37.06
2019-04-30T02:56:26.672Z,37.09
2019-04-30T02:59:00.451Z,36.85
2019-04-30T03:01:34.718Z,36.99
2019-04-30T03:04:09.920Z,37.02
2019-04-30T03:06:43.050Z,37.09
2019-04-30T03:09:16.428Z,37.13
2019-04-30T03:11:50.394Z,37.11
2019-04-30T03:14:23.815Z,37.11
2019-04-30T03:16:59.888Z,37.21
2019-04-30T03:19:32.219Z,37.23
2019-04-30T03:22:05.700Z,37.26
2019-04-30T03:24:39.817Z,37.07
2019-04-30T03:27:14.051Z,37.20
2019-04-30T03:29:50.017Z,36.96
2019-04-30T03:32:23.141Z,37.12
2019-04-30T03:34:56.687Z,37.13
2019-04-30T03:37:29.986Z,37.04
2019-04-30T03:40:06.169Z,36.98
2019-04-30T03:42:41.250Z,36.85
2019-04-30T03:45:14.670Z,36.95
2019-04-30T03:47:50.471Z,36.69
2019-04-30T03:50:23.105Z,36.95
2019-04-30T03:52:56.428Z,37.21
2019-04-30T03:55:30.034Z,37.34
2019-04-30T03:58:03.624Z,36.90
2019-04-30T04:00:36.988Z,37.20
2019-04-30T04:03:10.341Z,37.33
2019-04-30T04:05:43.819Z,37.07
2019-04-30T04:08:19.359Z,37.03
2019-04-30T04:10:52.943Z,36.52
2019-04-30T04:13:26.515Z,36.73
2019-04-30T04:16:00.140Z,36.69
2019-04-30T04:18:33.545Z,36.48
2019-04-30T04:21:16.037Z,36.21
2019-04-30T04:23:44.863Z,36.23
2019-04-30T04:26:20.232Z,36.08
2019-04-30T04:28:53.917Z,35.73
2019-04-30T04:31:29.702Z,35.60
2019-04-30T04:34:02.292Z,35.35
2019-04-30T04:36:35.638Z,35.61
2019-04-30T04:39:09.842Z,35.63
2019-04-30T04:41:44.287Z,35.61
2019-04-30T04:44:20.315Z,35.63
2019-04-30T04:46:52.758Z,35.57
2019-04-30T04:49:26.069Z,35.51
2019-04-30T04:51:59.479Z,35.45
2019-04-30T04:54:32.772Z,35.44
2019-04-30T04:57:14.923Z,35.08
2019-04-30T04:59:42.611Z,35.29
2019-04-30T05:02:16.252Z,34.61
2019-04-30T05:04:49.423Z,35.06
2019-04-30T05:07:22.814Z,35.15
2019-04-30T05:09:56.237Z,34.91
2019-04-30T05:12:29.915Z,35.19
2019-04-30T05:15:04.433Z,34.88
2019-04-30T05:17:39.789Z,35.10
2019-04-30T05:20:12.877Z,34.62
2019-04-30T05:22:46.182Z,35.12
2019-04-30T05:25:19.587Z,35.41
2019-04-30T05:27:52.976Z,35.17
2019-04-30T05:30:26.295Z,35.31
2019-04-30T05:32:59.610Z,35.45
2019-04-30T05:35:32.929Z,35.51
2019-04-30T05:38:06.250Z,35.15
2019-04-30T05:40:42.555Z,35.50
2019-04-30T05:43:16.032Z,34.94
2019-04-30T05:45:49.517Z,35.35
2019-04-30T05:48:24.419Z,34.73
2019-04-30T05:50:59.174Z,35.26
2019-04-30T05:53:32.597Z,35.51
2019-04-30T05:56:05.947Z,35.23
2019-04-30T05:58:39.740Z,35.57
2019-04-30T06:01:13.279Z,35.57
2019-04-30T06:03:48.312Z,35.66
2019-04-30T06:06:21.792Z,35.79
2019-04-30T06:09:04.645Z,35.58
2019-04-30T06:11:30.338Z,35.83
2019-04-30T06:14:03.684Z,35.47
2019-04-30T06:16:36.995Z,35.62
2019-04-30T06:19:10.553Z,35.76
2019-04-30T06:21:43.890Z,35.91
2019-04-30T06:24:18.797Z,35.93
2019-04-30T06:26:52.231Z,35.86
2019-04-30T06:29:25.709Z,36.58
2019-04-30T06:31:59.186Z,36.48
2019-04-30T06:34:32.509Z,36.20
2019-04-30T06:37:05.919Z,35.80
2019-04-30T06:39:39.417Z,36.28
2019-04-30T06:42:13.165Z,36.04
2019-04-30T06:44:49.435Z,36.09
2019-04-30T06:47:32.692Z,36.23
2019-04-30T06:49:58.740Z,36.11
2019-04-30T06:52:32.550Z,36.17
2019-04-30T06:55:05.883Z,36.31
2019-04-30T06:57:39.207Z,36.36
2019-04-30T07:00:12.536Z,35.89
2019-04-30T07:02:45.873Z,36.17
2019-04-30T07:05:19.194Z,36.40
2019-04-30T07:07:53.338Z,36.35
2019-04-30T07:10:29.349Z,35.81
2019-04-30T07:13:02.639Z,36.12
2019-04-30T07:15:36.116Z,36.22
2019-04-30T07:18:09.559Z,36.07
2019-04-30T07:20:42.941Z,36.33
2019-04-30T07:23:18.803Z,36.38
2019-04-30T07:25:52.327Z,36.52
2019-04-30T07:28:42.668Z,35.98
2019-04-30T07:31:13.332Z,36.36
2019-04-30T07:33:35.767Z,35.77
2019-04-30T07:36:09.749Z,36.19
2019-04-30T07:41:19.877Z,36.41
2019-04-30T07:43:53.662Z,36.50
2019-04-30T07:46:27.190Z,36.47
2019-04-30T07:49:00.615Z,36.46
2019-04-30T07:51:37.861Z,36.46
2019-04-30T07:54:09.329Z,36.46
2019-04-30T07:56:42.735Z,36.48
2019-04-30T07:59:16.096Z,36.47
2019-04-30T08:02:03.166Z,36.32
2019-04-30T08:04:24.417Z,36.46
2019-04-30T08:06:59.689Z,36.48
2019-04-30T08:09:35.036Z,36.24
2019-04-30T08:09:41.467Z,36.50
2019-04-30T08:12:09.247Z,36.61
2019-04-30T08:14:43.230Z,36.64
2019-04-30T08:17:18.743Z,36.11
2019-04-30T08:19:51.848Z,36.30
2019-04-30T08:22:25.179Z,36.46
2019-04-30T08:24:58.748Z,36.52
2019-04-30T08:27:32.255Z,36.57
2019-04-30T08:30:20.699Z,36.45
2019-04-30T08:32:42.347Z,36.42
2019-04-30T08:35:15.640Z,36.58
2019-04-30T08:37:49.656Z,36.53
2019-04-30T08:40:23.214Z,36.53
2019-04-30T08:42:59.501Z,36.53
2019-04-30T08:45:34.802Z,36.56
2019-04-30T08:48:09.081Z,36.52
2019-04-30T08:50:42.526Z,36.35
2019-04-30T08:53:26.450Z,36.29
2019-04-30T08:55:50.853Z,35.76
2019-04-30T08:58:24.205Z,35.90
2019-04-30T09:00:58.807Z,35.54
2019-04-30T09:03:32.479Z,35.79
2019-04-30T09:06:05.796Z,35.96
2019-04-30T09:08:40.023Z,36.06
2019-04-30T09:11:22.416Z,36.27
2019-04-30T09:13:48.887Z,36.74
2019-04-30T09:16:22.296Z,36.65
2019-04-30T09:18:57.252Z,36.54
2019-04-30T09:21:30.548Z,36.53
2019-04-30T09:24:03.897Z,36.29
2019-04-30T09:26:39.040Z,36.37
2019-04-30T09:29:12.309Z,36.20
2019-04-30T09:31:45.633Z,36.12
2019-04-30T09:34:21.024Z,36.06
2019-04-30T09:36:54.756Z,36.10
2019-04-30T09:39:29.614Z,36.01
2019-04-30T09:42:03.065Z,36.02
2019-04-30T09:44:36.414Z,36.04
2019-04-30T09:47:11.345Z,35.95
2019-04-30T09:49:44.683Z,36.03
2019-04-30T09:52:19.298Z,36.04
2019-04-30T09:54:54.014Z,36.09
2019-04-30T09:57:28.980Z,36.05
2019-04-30T10:00:04.067Z,36.02
2019-04-30T10:02:38.888Z,35.99
2019-04-30T10:05:13.184Z,35.97
2019-04-30T10:07:49.303Z,35.68
2019-04-30T10:10:22.864Z,36.13
2019-04-30T10:12:56.250Z,35.49
2019-04-30T10:15:29.659Z,35.74
2019-04-30T10:18:03.240Z,35.58
2019-04-30T10:20:39.393Z,35.89
2019-04-30T10:23:12.694Z,35.85
2019-04-30T10:25:47.137Z,35.94
2019-04-30T10:28:20.427Z,35.86
2019-04-30T10:30:53.797Z,36.06
2019-04-30T10:33:28.716Z,35.14
2019-04-30T10:36:02.185Z,35.61
2019-04-30T10:38:35.548Z,35.87
2019-04-30T10:41:09.050Z,35.86
2019-04-30T10:43:42.478Z,35.96
2019-04-30T10:46:15.985Z,35.83
2019-04-30T10:48:49.643Z,35.88
2019-04-30T10:51:23.003Z,35.97
2019-04-30T10:53:56.357Z,36.06
2019-04-30T10:56:29.775Z,36.21
2019-04-30T10:59:03.342Z,36.21
2019-04-30T11:01:36.755Z,35.44
2019-04-30T11:04:10.103Z,36.04
2019-04-30T11:06:43.692Z,35.34
2019-04-30T11:09:16.997Z,35.77
2019-04-30T11:11:50.519Z,35.86
2019-04-30T11:14:23.895Z,36.06
2019-04-30T11:16:59.275Z,36.05
2019-04-30T11:19:32.478Z,35.51
2019-04-30T11:22:06.081Z,35.83
2019-04-30T11:24:55.521Z,35.27
2019-04-30T11:27:15.521Z,35.68
2019-04-30T11:29:49.706Z,35.79
2019-04-30T11:32:23.400Z,35.88
2019-04-30T11:34:56.832Z,35.98
2019-04-30T11:37:30.172Z,36.00
2019-04-30T11:40:08.109Z,36.06
2019-04-30T11:42:41.616Z,36.22
2019-04-30T11:45:19.465Z,36.00
2019-04-30T11:47:53.748Z,36.05
2019-04-30T11:50:29.977Z,36.19
2019-04-30T11:53:19.531Z,36.12
2019-04-30T11:55:39.030Z,36.26
2019-04-30T11:58:21.678Z,36.34
2019-04-30T12:00:50.829Z,36.13
2019-04-30T12:03:25.798Z,36.09
2019-04-30T12:05:59.220Z,35.65
2019-04-30T12:08:32.606Z,35.95
2019-04-30T12:11:05.943Z,35.51
2019-04-30T12:13:39.248Z,35.79
2019-04-30T12:16:12.619Z,35.86
2019-04-30T12:18:45.992Z,35.99
2019-04-30T12:21:19.322Z,35.92
2019-04-30T12:23:52.617Z,35.96
2019-04-30T12:26:25.957Z,35.96
2019-04-30T12:28:59.280Z,36.08
2019-04-30T12:31:32.648Z,36.08
2019-04-30T12:34:05.955Z,36.18
2019-04-30T12:36:39.290Z,36.26
2019-04-30T12:39:12.475Z,36.22
2019-04-30T12:41:45.826Z,36.14
2019-04-30T12:44:20.763Z,36.22
2019-04-30T12:46:54.153Z,36.26
2019-04-30T12:49:28.867Z,36.33
2019-04-30T12:52:02.779Z,36.33
2019-04-30T12:54:36.072Z,36.23
2019-04-30T12:57:11.197Z,36.39
2019-04-30T12:59:44.633Z,36.42
2019-04-30T13:02:19.117Z,36.37
2019-04-30T13:04:52.546Z,36.45
2019-04-30T13:07:26.493Z,35.97
2019-04-30T13:10:01.963Z,36.20
2019-04-30T13:12:36.637Z,36.16
2019-04-30T13:15:10.363Z,36.30
2019-04-30T13:17:43.730Z,36.26
2019-04-30T13:20:21.269Z,36.22
2019-04-30T13:22:52.160Z,36.19
2019-04-30T13:25:32.451Z,36.40
2019-04-30T13:28:02.483Z,36.41
2019-04-30T13:30:35.804Z,36.31
2019-04-30T13:33:09.537Z,36.32
2019-04-30T13:35:42.908Z,36.29
2019-04-30T13:38:16.421Z,36.31
2019-04-30T13:40:49.727Z,36.37
2019-04-30T13:43:23.056Z,36.29
2019-04-30T13:45:56.468Z,35.88
2019-04-30T13:48:31.459Z,36.03
2019-04-30T13:51:04.894Z,36.09
2019-04-30T13:53:39.770Z,36.19
2019-04-30T13:56:13.110Z,36.34
2019-04-30T13:58:47.081Z,36.09
2019-04-30T14:01:21.505Z,36.29
2019-04-30T14:03:54.877Z,36.08
2019-04-30T14:06:28.966Z,36.13
2019-04-30T14:09:03.939Z,36.23
2019-04-30T14:11:37.746Z,36.25
2019-04-30T14:14:11.303Z,36.26
2019-04-30T14:16:44.650Z,36.27
2019-04-30T14:19:19.557Z,36.30
2019-04-30T14:21:54.078Z,36.27
2019-04-30T14:24:27.600Z,36.26
2019-04-30T14:27:01.321Z,36.36
2019-04-30T14:29:34.689Z,36.37
2019-04-30T14:32:08.680Z,36.18
2019-04-30T14:34:42.476Z,36.32
2019-04-30T14:37:15.777Z,36.35
2019-04-30T14:39:49.579Z,36.44
2019-04-30T14:42:25.007Z,35.99
2019-04-30T14:44:59.804Z,36.25
2019-04-30T14:47:34.439Z,36.32
2019-04-30T14:50:09.895Z,36.27
2019-04-30T14:52:43.466Z,36.21
2019-04-30T14:55:18.655Z,36.16
2019-04-30T14:57:51.991Z,36.17
2019-04-30T15:00:25.331Z,36.17
2019-04-30T15:02:58.667Z,36.14
2019-04-30T15:05:38.862Z,36.18
2019-04-30T15:08:08.631Z,36.00
2019-04-30T15:10:42.033Z,36.17
2019-04-30T15:13:15.369Z,35.82
2019-04-30T15:15:49.189Z,36.54
2019-04-30T15:18:22.930Z,36.54
2019-04-30T15:20:56.429Z,36.58
2019-04-30T15:23:29.801Z,36.52
2019-04-30T15:26:03.171Z,36.42
2019-04-30T15:28:36.491Z,36.41
2019-04-30T15:31:09.849Z,36.30
2019-04-30T15:33:43.184Z,36.30
2019-04-30T15:36:16.536Z,36.30
2019-04-30T15:38:50.320Z,36.30
2019-04-30T15:41:23.720Z,36.30
2019-04-30T15:43:57.016Z,36.23
2019-04-30T15:46:31.423Z,35.52
2019-04-30T15:49:04.797Z,35.89
2019-04-30T15:51:38.198Z,36.05
2019-04-30T15:54:11.502Z,36.05
2019-04-30T15:56:44.843Z,36.16
2019-04-30T15:59:18.961Z,36.21
2019-04-30T16:01:52.570Z,36.19
2019-04-30T16:04:28.542Z,35.95
2019-04-30T16:07:02.008Z,36.01
2019-04-30T16:09:35.302Z,36.09
2019-04-30T16:12:08.632Z,36.14
2019-04-30T16:14:43.517Z,36.01
2019-04-30T16:17:20.415Z,36.13
2019-04-30T16:19:52.022Z,36.08
2019-04-30T16:22:25.363Z,36.14
2019-04-30T16:25:00.437Z,36.08
2019-04-30T16:27:34.080Z,36.22
2019-04-30T16:30:09.409Z,36.17
2019-04-30T16:32:42.895Z,36.14
2019-04-30T16:35:16.366Z,35.68
2019-04-30T16:37:49.756Z,35.90
2019-04-30T16:40:23.111Z,35.49
2019-04-30T16:42:56.422Z,35.82
2019-04-30T16:45:30.021Z,35.73
2019-04-30T16:48:03.331Z,36.01
2019-04-30T16:50:36.717Z,35.82
2019-04-30T16:53:10.087Z,36.30
2019-04-30T16:55:45.260Z,36.40
2019-04-30T16:58:20.231Z,36.60
2019-04-30T17:00:54.290Z,36.63
2019-04-30T17:03:28.722Z,36.53
2019-04-30T17:06:02.053Z,36.66
2019-04-30T17:08:35.717Z,36.36
2019-04-30T17:11:09.101Z,36.60
2019-04-30T17:13:42.413Z,36.74
2019-04-30T17:16:16.098Z,36.98
2019-04-30T17:18:50.198Z,36.81
2019-04-30T17:21:23.631Z,36.99
2019-04-30T17:23:58.711Z,36.61
2019-04-30T17:26:32.010Z,37.10
2019-04-30T17:29:05.582Z,36.92
2019-04-30T17:31:38.951Z,37.31
2019-04-30T17:34:12.318Z,36.99
2019-04-30T17:36:45.888Z,37.22
2019-04-30T17:39:19.264Z,37.43
2019-04-30T17:41:53.042Z,37.26
2019-04-30T17:44:26.419Z,36.98
2019-04-30T17:47:01.477Z,37.05
2019-04-30T17:49:34.918Z,36.97
2019-04-30T17:52:09.842Z,37.13
2019-04-30T17:54:43.192Z,37.34
2019-04-30T17:57:29.627Z,37.48
2019-04-30T17:59:51.688Z,37.52
2019-04-30T18:02:25.258Z,37.52
2019-04-30T18:04:59.718Z,37.56
2019-04-30T18:07:33.089Z,37.58
2019-04-30T18:10:08.741Z,37.72
2019-04-30T18:12:42.227Z,37.38
2019-04-30T18:15:15.570Z,37.44
2019-04-30T18:17:48.895Z,37.63
2019-04-30T18:20:22.289Z,37.82
2019-04-30T18:22:55.723Z,38.02
2019-04-30T18:25:29.058Z,37.81
2019-04-30T18:28:02.371Z,37.60
2019-04-30T18:30:35.973Z,37.88
2019-04-30T18:33:09.984Z,38.00
2019-04-30T18:35:43.723Z,37.97
2019-04-30T18:38:18.233Z,37.99
2019-04-30T18:40:51.621Z,37.84
2019-04-30T18:43:25.037Z,37.58
2019-04-30T18:46:00.591Z,37.76
2019-04-30T18:48:33.704Z,37.64
2019-04-30T18:51:23.484Z,37.78
2019-04-30T18:53:42.706Z,37.28
2019-04-30T18:56:15.885Z,37.65
2019-04-30T18:58:49.207Z,37.55
2019-04-30T19:01:22.564Z,37.61
2019-04-30T19:03:56.248Z,37.57
2019-04-30T19:06:29.833Z,37.86
2019-04-30T19:09:04.484Z,37.91
2019-04-30T19:11:39.545Z,37.82
2019-04-30T19:14:12.879Z,37.08
2019-04-30T19:16:46.257Z,37.47
2019-04-30T19:19:19.643Z,37.67
2019-04-30T19:21:53.984Z,37.74
2019-04-30T19:24:29.219Z,37.91
2019-04-30T19:27:02.576Z,38.03
2019-04-30T19:29:37.029Z,37.89
2019-04-30T19:32:10.690Z,38.02
2019-04-30T19:34:44.023Z,38.14
2019-04-30T19:37:19.590Z,38.10
2019-04-30T19:39:52.564Z,38.12
2019-04-30T19:42:26.222Z,38.05
2019-04-30T19:45:09.085Z,38.05
2019-04-30T19:47:35.238Z,37.89
2019-04-30T19:50:09.395Z,37.98
2019-04-30T19:52:43.250Z,37.72
2019-04-30T19:55:20.468Z,37.89
2019-04-30T19:57:52.405Z,37.79
2019-04-30T20:00:26.172Z,38.00
2019-04-30T20:03:00.064Z,37.92
2019-04-30T20:05:33.559Z,38.05
2019-04-30T20:08:10.808Z,37.90
2019-04-30T20:10:42.252Z,37.88
2019-04-30T20:13:27.843Z,37.93
2019-04-30T20:15:50.822Z,37.97
2019-04-30T20:18:24.178Z,37.45
2019-04-30T20:21:00.848Z,37.75
2019-04-30T20:23:32.604Z,37.50
2019-04-30T20:28:42.251Z,37.84
2019-04-30T20:31:13.979Z,37.72
2019-04-30T20:33:48.942Z,37.77
2019-04-30T20:36:22.804Z,37.86
2019-04-30T20:38:57.236Z,37.49
2019-04-30T20:41:30.589Z,37.86
2019-04-30T20:44:04.014Z,38.10
2019-04-30T20:46:43.475Z,38.19
2019-04-30T20:49:19.218Z,38.69
2019-04-30T20:51:55.902Z,38.59
2019-04-30T20:54:29.076Z,38.88
2019-04-30T20:57:02.593Z,38.82
2019-04-30T20:59:36.038Z,39.06
2019-04-30T21:02:09.376Z,38.91
2019-04-30T21:04:42.726Z,38.51
2019-04-30T21:07:18.946Z,38.38
2019-04-30T21:09:52.406Z,38.50
2019-04-30T21:12:25.798Z,38.00
2019-04-30T21:14:59.624Z,38.52
2019-04-30T21:17:33.061Z,38.30
2019-04-30T21:20:06.370Z,38.60
2019-04-30T21:22:41.158Z,38.37
2019-04-30T21:25:15.789Z,38.30
2019-04-30T21:27:49.995Z,38.44
2019-04-30T21:30:23.387Z,38.65
2019-04-30T21:32:59.297Z,38.59
2019-04-30T21:35:32.515Z,38.74
2019-04-30T21:38:05.865Z,38.80
2019-04-30T21:40:39.533Z,38.68
2019-04-30T21:43:13.001Z,38.85
2019-04-30T21:45:49.366Z,38.68
2019-04-30T21:48:23.868Z,38.63
2019-04-30T21:50:59.200Z,38.82
2019-04-30T21:53:32.214Z,38.40
2019-04-30T21:56:05.527Z,38.78
2019-04-30T21:58:39.334Z,38.27
2019-04-30T22:01:12.735Z,38.55
2019-04-30T22:03:48.616Z,38.56
2019-04-30T22:06:21.937Z,38.58
2019-04-30T22:08:55.294Z,38.80
2019-04-30T22:11:29.590Z,38.79
2019-04-30T22:14:03.226Z,38.96
2019-04-30T22:16:36.523Z,38.81
2019-04-30T22:19:09.881Z,38.93
2019-04-30T22:21:43.171Z,38.93
2019-04-30T22:24:16.506Z,39.02
2019-04-30T22:26:49.819Z,39.07
2019-04-30T22:29:23.154Z,38.93
2019-04-30T22:31:56.625Z,38.45
2019-04-30T22:34:29.948Z,38.89
2019-04-30T22:37:03.281Z,38.36
2019-04-30T22:39:36.613Z,38.62
2019-04-30T22:42:29.581Z,38.14
2019-04-30T22:45:02.789Z,38.40
2019-04-30T22:47:36.360Z,38.01
2019-04-30T22:50:09.767Z,38.31
2019-04-30T22:52:43.589Z,38.27
2019-04-30T22:55:17.084Z,38.42
2019-04-30T22:57:50.383Z,38.44
2019-04-30T23:00:23.845Z,38.44
2019-04-30T23:02:57.243Z,38.43
2019-04-30T23:05:30.822Z,38.33
2019-04-30T23:08:04.145Z,38.44
2019-04-30T23:10:37.501Z,38.42
2019-04-30T23:13:10.807Z,38.43
2019-04-30T23:15:44.157Z,38.46
2019-04-30T23:18:18.580Z,38.51
2019-04-30T23:20:51.943Z,37.96
2019-04-30T23:23:25.508Z,38.25
2019-04-30T23:25:58.873Z,38.39
2019-04-30T23:28:32.347Z,38.48
2019-04-30T23:31:05.742Z,37.94
2019-04-30T23:33:39.144Z,38.24
2019-04-30T23:36:12.718Z,38.38
2019-04-30T23:38:46.048Z,38.33
2019-04-30T23:41:19.503Z,38.35
2019-04-30T23:46:28.808Z,38.39
2019-04-30T23:49:02.169Z,38.50
2019-04-30T23:51:35.757Z,38.36
2019-04-30T23:54:09.077Z,38.46
2019-04-30T23:56:42.443Z,38.44
2019-04-30T23:59:15.757Z,38.38
